Carrasco International /General C L Berisso Airport


Codes: SUMU/MVD
Name: Carrasco International /General C L Berisso Airport
City: Montevideo
Country: Uruguay
Elevation: 105 ft.
Wikipedia:

Photos at Carrasco International /General C L Berisso Airport


   Photos courtesy of SpottingLog. You can add your own sightings and photos by signing up for a free trial today.



No photos found.

Weather at Carrasco International /General C L Berisso Airport


Time (UTC)DescriptionTempratureWindCloud coverageVisibilityPressureHumidity
21-Feb-2024 03:00Clear Sky24°C11 mph, NE0%10000m1012hPa78%
21-Feb-2024 06:00Few Clouds23°C9 mph, NE19%10000m1012hPa80%
21-Feb-2024 09:00Broken Clouds21°C9 mph, NE58%10000m1011hPa82%
21-Feb-2024 12:00Broken Clouds23°C9 mph, NE66%10000m1012hPa67%
21-Feb-2024 15:00Clear Sky28°C7 mph, E5%10000m1011hPa53%
21-Feb-2024 18:00Clear Sky28°C13 mph, SE10%10000m1009hPa53%
21-Feb-2024 21:00Scattered Clouds25°C16 mph, SE27%10000m1008hPa62%
22-Feb-2024 00:00Few Clouds24°C16 mph, E13%10000m1009hPa64%
22-Feb-2024 03:00Few Clouds22°C13 mph, NE11%10000m1009hPa69%
22-Feb-2024 06:00Few Clouds21°C11 mph, NE14%10000m1008hPa74%
22-Feb-2024 09:00Scattered Clouds20°C9 mph, NE36%10000m1009hPa80%
22-Feb-2024 12:00Scattered Clouds23°C9 mph, NE49%10000m1009hPa65%
22-Feb-2024 15:00Broken Clouds28°C7 mph, E77%10000m1008hPa49%
22-Feb-2024 18:00Broken Clouds29°C13 mph, E76%10000m1006hPa49%
22-Feb-2024 21:00Overcast Clouds26°C13 mph, E100%10000m1005hPa62%
23-Feb-2024 00:00Overcast Clouds24°C11 mph, E100%10000m1005hPa74%
23-Feb-2024 03:00Overcast Clouds24°C11 mph, NE100%10000m1006hPa72%
23-Feb-2024 06:00Overcast Clouds23°C11 mph, N100%10000m1006hPa77%
23-Feb-2024 09:00Overcast Clouds23°C7 mph, SW98%10000m1008hPa81%
23-Feb-2024 12:00Broken Clouds25°C11 mph, S78%10000m1010hPa74%
23-Feb-2024 15:00Broken Clouds26°C16 mph, S63%10000m1012hPa69%
23-Feb-2024 18:00Light Rain24°C13 mph, S80%10000m1013hPa71%
23-Feb-2024 21:00Overcast Clouds23°C16 mph, S100%10000m1014hPa70%
24-Feb-2024 00:00Overcast Clouds22°C16 mph, SE100%10000m1016hPa65%
24-Feb-2024 03:00Overcast Clouds22°C16 mph, SE100%10000m1017hPa59%
24-Feb-2024 06:00Overcast Clouds21°C16 mph, SE92%10000m1018hPa64%
24-Feb-2024 09:00Broken Clouds20°C18 mph, SE63%10000m1019hPa68%
24-Feb-2024 12:00Broken Clouds20°C18 mph, SE64%10000m1022hPa62%
24-Feb-2024 15:00Overcast Clouds21°C16 mph, SE95%10000m1023hPa61%
24-Feb-2024 18:00Overcast Clouds20°C18 mph, SE86%10000m1023hPa62%
24-Feb-2024 21:00Overcast Clouds19°C16 mph, SE94%10000m1024hPa59%
25-Feb-2024 00:00Broken Clouds19°C16 mph, SE80%10000m1025hPa58%
25-Feb-2024 03:00Clear Sky19°C13 mph, SE10%10000m1025hPa61%
25-Feb-2024 06:00Clear Sky18°C11 mph, E6%10000m1024hPa64%
25-Feb-2024 09:00Clear Sky17°C9 mph, E1%10000m1025hPa67%
25-Feb-2024 12:00Clear Sky21°C11 mph, E1%10000m1026hPa54%
25-Feb-2024 15:00Clear Sky23°C13 mph, SE0%10000m1025hPa46%
25-Feb-2024 18:00Clear Sky23°C16 mph, SE0%10000m1022hPa50%
25-Feb-2024 21:00Clear Sky22°C20 mph, SE0%10000m1020hPa58%
26-Feb-2024 00:00Clear Sky20°C18 mph, E3%10000m1021hPa62%